sensor_id;sensor_type;location;lat;lon;timestamp;P1;durP1;ratioP1;P2;durP2;ratioP2
3789;SDS011;1910;49.042;9.028;2023-07-13T00:02:10;8.40;;;2.10;;
3789;SDS011;1910;49.042;9.028;2023-07-13T00:04:36;4.50;;;1.40;;
3789;SDS011;1910;49.042;9.028;2023-07-13T00:07:02;3.13;;;1.20;;
3789;SDS011;1910;49.042;9.028;2023-07-13T00:09:28;1.57;;;1.47;;
3789;SDS011;1910;49.042;9.028;2023-07-13T00:11:55;7.30;;;1.43;;
3789;SDS011;1910;49.042;9.028;2023-07-13T00:14:22;7.33;;;1.70;;
3789;SDS011;1910;49.042;9.028;2023-07-13T00:16:49;0.63;;;0.63;;
3789;SDS011;1910;49.042;9.028;2023-07-13T00:19:15;5.63;;;1.20;;
3789;SDS011;1910;49.042;9.028;2023-07-13T00:21:41;2.23;;;1.03;;
3789;SDS011;1910;49.042;9.028;2023-07-13T00:24:08;2.23;;;1.20;;
3789;SDS011;1910;49.042;9.028;2023-07-13T00:26:38;1.73;;;1.07;;
3789;SDS011;1910;49.042;9.028;2023-07-13T00:29:04;2.07;;;1.20;;
3789;SDS011;1910;49.042;9.028;2023-07-13T00:31:33;1.53;;;1.13;;
3789;SDS011;1910;49.042;9.028;2023-07-13T00:33:59;2.03;;;1.40;;
3789;SDS011;1910;49.042;9.028;2023-07-13T00:36:25;3.37;;;1.10;;
3789;SDS011;1910;49.042;9.028;2023-07-13T00:38:51;5.50;;;1.50;;
3789;SDS011;1910;49.042;9.028;2023-07-13T00:41:17;1.10;;;1.00;;
3789;SDS011;1910;49.042;9.028;2023-07-13T00:43:43;5.73;;;1.30;;
3789;SDS011;1910;49.042;9.028;2023-07-13T00:48:55;1.30;;;1.20;;
3789;SDS011;1910;49.042;9.028;2023-07-13T00:51:32;2.03;;;1.47;;
3789;SDS011;1910;49.042;9.028;2023-07-13T00:54:04;3.77;;;1.00;;
3789;SDS011;1910;49.042;9.028;2023-07-13T00:56:33;1.47;;;1.00;;
3789;SDS011;1910;49.042;9.028;2023-07-13T00:59:00;3.23;;;1.17;;
3789;SDS011;1910;49.042;9.028;2023-07-13T01:01:30;2.80;;;1.40;;
3789;SDS011;1910;49.042;9.028;2023-07-13T01:03:56;2.00;;;0.93;;
3789;SDS011;1910;49.042;9.028;2023-07-13T01:06:22;6.60;;;1.20;;
3789;SDS011;1910;49.042;9.028;2023-07-13T01:08:48;2.30;;;1.27;;
3789;SDS011;1910;49.042;9.028;2023-07-13T01:11:17;1.00;;;0.90;;
3789;SDS011;1910;49.042;9.028;2023-07-13T01:13:45;5.13;;;1.30;;
3789;SDS011;1910;49.042;9.028;2023-07-13T01:16:25;2.70;;;1.63;;
3789;SDS011;1910;49.042;9.028;2023-07-13T01:18:52;4.67;;;2.43;;
3789;SDS011;1910;49.042;9.028;2023-07-13T01:21:18;2.60;;;1.20;;
3789;SDS011;1910;49.042;9.028;2023-07-13T01:23:44;2.87;;;1.20;;
3789;SDS011;1910;49.042;9.028;2023-07-13T01:26:10;5.50;;;1.27;;
3789;SDS011;1910;49.042;9.028;2023-07-13T01:28:36;1.90;;;1.20;;
3789;SDS011;1910;49.042;9.028;2023-07-13T01:31:02;4.03;;;1.47;;
3789;SDS011;1910;49.042;9.028;2023-07-13T01:33:29;1.23;;;1.10;;
3789;SDS011;1910;49.042;9.028;2023-07-13T01:35:55;2.50;;;1.20;;
3789;SDS011;1910;49.042;9.028;2023-07-13T01:38:22;1.43;;;1.33;;
3789;SDS011;1910;49.042;9.028;2023-07-13T01:40:49;1.63;;;1.40;;
3789;SDS011;1910;49.042;9.028;2023-07-13T01:43:15;2.27;;;1.23;;
3789;SDS011;1910;49.042;9.028;2023-07-13T01:45:41;1.50;;;1.00;;
3789;SDS011;1910;49.042;9.028;2023-07-13T01:48:09;1.70;;;1.23;;
3789;SDS011;1910;49.042;9.028;2023-07-13T01:50:35;2.67;;;1.40;;
3789;SDS011;1910;49.042;9.028;2023-07-13T01:53:01;2.10;;;1.13;;
3789;SDS011;1910;49.042;9.028;2023-07-13T01:55:27;1.30;;;1.20;;
3789;SDS011;1910;49.042;9.028;2023-07-13T01:57:53;3.33;;;1.40;;
3789;SDS011;1910;49.042;9.028;2023-07-13T02:00:19;2.30;;;1.10;;
3789;SDS011;1910;49.042;9.028;2023-07-13T02:02:45;2.30;;;1.03;;
3789;SDS011;1910;49.042;9.028;2023-07-13T02:05:11;2.90;;;1.57;;
3789;SDS011;1910;49.042;9.028;2023-07-13T02:07:37;1.90;;;1.33;;
3789;SDS011;1910;49.042;9.028;2023-07-13T02:10:03;1.77;;;1.17;;
3789;SDS011;1910;49.042;9.028;2023-07-13T02:12:30;2.20;;;1.23;;
3789;SDS011;1910;49.042;9.028;2023-07-13T02:14:56;5.60;;;1.60;;
3789;SDS011;1910;49.042;9.028;2023-07-13T02:17:21;3.73;;;1.57;;
3789;SDS011;1910;49.042;9.028;2023-07-13T02:19:47;4.30;;;1.50;;
3789;SDS011;1910;49.042;9.028;2023-07-13T02:22:13;4.50;;;2.10;;
3789;SDS011;1910;49.042;9.028;2023-07-13T02:24:39;2.93;;;1.80;;
3789;SDS011;1910;49.042;9.028;2023-07-13T02:27:04;9.37;;;2.13;;
3789;SDS011;1910;49.042;9.028;2023-07-13T02:29:30;3.27;;;2.10;;
3789;SDS011;1910;49.042;9.028;2023-07-13T02:31:56;1.20;;;1.00;;
3789;SDS011;1910;49.042;9.028;2023-07-13T02:34:22;2.40;;;1.20;;
3789;SDS011;1910;49.042;9.028;2023-07-13T02:36:48;1.60;;;1.20;;
3789;SDS011;1910;49.042;9.028;2023-07-13T02:39:13;20.43;;;2.27;;
3789;SDS011;1910;49.042;9.028;2023-07-13T02:41:40;1.70;;;1.17;;
3789;SDS011;1910;49.042;9.028;2023-07-13T02:44:05;3.07;;;1.57;;
3789;SDS011;1910;49.042;9.028;2023-07-13T02:46:34;2.10;;;1.20;;
3789;SDS011;1910;49.042;9.028;2023-07-13T02:49:01;4.67;;;2.23;;
3789;SDS011;1910;49.042;9.028;2023-07-13T02:51:27;2.63;;;1.53;;
3789;SDS011;1910;49.042;9.028;2023-07-13T02:53:53;2.10;;;1.47;;
3789;SDS011;1910;49.042;9.028;2023-07-13T02:56:21;1.70;;;1.20;;
3789;SDS011;1910;49.042;9.028;2023-07-13T02:58:49;4.50;;;1.60;;
3789;SDS011;1910;49.042;9.028;2023-07-13T03:01:14;3.07;;;1.30;;
3789;SDS011;1910;49.042;9.028;2023-07-13T03:03:43;2.97;;;1.30;;
3789;SDS011;1910;49.042;9.028;2023-07-13T03:06:13;1.93;;;1.30;;
3789;SDS011;1910;49.042;9.028;2023-07-13T03:08:39;2.17;;;1.37;;
3789;SDS011;1910;49.042;9.028;2023-07-13T03:11:07;2.07;;;1.50;;
3789;SDS011;1910;49.042;9.028;2023-07-13T03:13:36;3.27;;;2.00;;
3789;SDS011;1910;49.042;9.028;2023-07-13T03:16:02;4.53;;;1.47;;
3789;SDS011;1910;49.042;9.028;2023-07-13T03:18:28;1.60;;;1.30;;
3789;SDS011;1910;49.042;9.028;2023-07-13T03:20:54;3.73;;;1.50;;
3789;SDS011;1910;49.042;9.028;2023-07-13T03:23:20;2.10;;;1.87;;
3789;SDS011;1910;49.042;9.028;2023-07-13T03:25:46;7.07;;;1.87;;
3789;SDS011;1910;49.042;9.028;2023-07-13T03:28:13;2.03;;;1.50;;
3789;SDS011;1910;49.042;9.028;2023-07-13T03:30:39;8.20;;;1.90;;
3789;SDS011;1910;49.042;9.028;2023-07-13T03:33:05;3.23;;;1.87;;
3789;SDS011;1910;49.042;9.028;2023-07-13T03:35:31;3.23;;;1.70;;
3789;SDS011;1910;49.042;9.028;2023-07-13T03:37:58;4.30;;;1.80;;
3789;SDS011;1910;49.042;9.028;2023-07-13T03:40:24;3.67;;;1.63;;
3789;SDS011;1910;49.042;9.028;2023-07-13T03:42:51;1.63;;;1.53;;
3789;SDS011;1910;49.042;9.028;2023-07-13T03:45:17;5.37;;;1.93;;
3789;SDS011;1910;49.042;9.028;2023-07-13T03:47:43;2.13;;;1.60;;
3789;SDS011;1910;49.042;9.028;2023-07-13T03:50:09;2.40;;;1.77;;
3789;SDS011;1910;49.042;9.028;2023-07-13T03:52:35;2.60;;;2.20;;
3789;SDS011;1910;49.042;9.028;2023-07-13T03:55:00;6.93;;;1.83;;
3789;SDS011;1910;49.042;9.028;2023-07-13T03:57:26;3.90;;;2.23;;
3789;SDS011;1910;49.042;9.028;2023-07-13T03:59:52;2.30;;;1.77;;
3789;SDS011;1910;49.042;9.028;2023-07-13T04:02:18;4.63;;;1.73;;
3789;SDS011;1910;49.042;9.028;2023-07-13T04:04:44;2.80;;;2.10;;
3789;SDS011;1910;49.042;9.028;2023-07-13T04:07:11;3.00;;;1.47;;
3789;SDS011;1910;49.042;9.028;2023-07-13T04:09:36;3.87;;;2.20;;
3789;SDS011;1910;49.042;9.028;2023-07-13T04:12:02;3.43;;;1.73;;
3789;SDS011;1910;49.042;9.028;2023-07-13T04:14:28;3.93;;;1.73;;
3789;SDS011;1910;49.042;9.028;2023-07-13T04:16:53;2.20;;;1.67;;
3789;SDS011;1910;49.042;9.028;2023-07-13T04:19:20;4.27;;;2.07;;
3789;SDS011;1910;49.042;9.028;2023-07-13T04:21:46;2.13;;;1.70;;
3789;SDS011;1910;49.042;9.028;2023-07-13T04:24:12;1.70;;;1.57;;
3789;SDS011;1910;49.042;9.028;2023-07-13T04:26:37;2.97;;;2.20;;
3789;SDS011;1910;49.042;9.028;2023-07-13T04:29:04;10.53;;;1.90;;
3789;SDS011;1910;49.042;9.028;2023-07-13T04:31:31;2.27;;;1.50;;
3789;SDS011;1910;49.042;9.028;2023-07-13T04:33:57;3.63;;;1.80;;
3789;SDS011;1910;49.042;9.028;2023-07-13T04:36:23;2.37;;;1.70;;
3789;SDS011;1910;49.042;9.028;2023-07-13T04:38:52;2.37;;;1.70;;
3789;SDS011;1910;49.042;9.028;2023-07-13T04:41:18;1.80;;;1.60;;
3789;SDS011;1910;49.042;9.028;2023-07-13T04:43:45;6.43;;;1.87;;
3789;SDS011;1910;49.042;9.028;2023-07-13T04:46:14;3.10;;;1.80;;
3789;SDS011;1910;49.042;9.028;2023-07-13T04:48:42;3.53;;;1.70;;
3789;SDS011;1910;49.042;9.028;2023-07-13T04:51:09;1.77;;;1.50;;
3789;SDS011;1910;49.042;9.028;2023-07-13T04:53:35;4.50;;;2.23;;
3789;SDS011;1910;49.042;9.028;2023-07-13T04:56:01;3.03;;;2.07;;
3789;SDS011;1910;49.042;9.028;2023-07-13T04:58:27;2.43;;;1.80;;
3789;SDS011;1910;49.042;9.028;2023-07-13T05:00:53;2.00;;;1.73;;
3789;SDS011;1910;49.042;9.028;2023-07-13T05:03:19;3.17;;;1.80;;
3789;SDS011;1910;49.042;9.028;2023-07-13T05:05:54;2.33;;;1.60;;
3789;SDS011;1910;49.042;9.028;2023-07-13T05:08:20;1.13;;;1.00;;
3789;SDS011;1910;49.042;9.028;2023-07-13T05:10:46;5.70;;;2.23;;
3789;SDS011;1910;49.042;9.028;2023-07-13T05:13:12;1.63;;;1.43;;
3789;SDS011;1910;49.042;9.028;2023-07-13T05:15:38;4.83;;;2.20;;
3789;SDS011;1910;49.042;9.028;2023-07-13T05:18:04;4.60;;;1.77;;
3789;SDS011;1910;49.042;9.028;2023-07-13T05:20:30;3.63;;;1.93;;
3789;SDS011;1910;49.042;9.028;2023-07-13T05:22:56;2.70;;;1.80;;
3789;SDS011;1910;49.042;9.028;2023-07-13T05:25:23;2.47;;;2.23;;
3789;SDS011;1910;49.042;9.028;2023-07-13T05:27:48;4.40;;;2.00;;
3789;SDS011;1910;49.042;9.028;2023-07-13T05:30:14;4.00;;;1.57;;
3789;SDS011;1910;49.042;9.028;2023-07-13T05:32:40;2.03;;;1.80;;
3789;SDS011;1910;49.042;9.028;2023-07-13T05:35:07;3.37;;;2.37;;
3789;SDS011;1910;49.042;9.028;2023-07-13T05:37:33;2.50;;;1.93;;
3789;SDS011;1910;49.042;9.028;2023-07-13T05:39:59;2.73;;;1.87;;
3789;SDS011;1910;49.042;9.028;2023-07-13T05:42:25;3.10;;;2.20;;
3789;SDS011;1910;49.042;9.028;2023-07-13T05:44:51;25.20;;;3.80;;
3789;SDS011;1910;49.042;9.028;2023-07-13T05:47:17;29.43;;;5.77;;
3789;SDS011;1910;49.042;9.028;2023-07-13T05:49:42;20.60;;;4.30;;
3789;SDS011;1910;49.042;9.028;2023-07-13T05:52:08;27.50;;;4.07;;
3789;SDS011;1910;49.042;9.028;2023-07-13T05:54:35;12.10;;;3.60;;
3789;SDS011;1910;49.042;9.028;2023-07-13T05:57:01;5.60;;;2.57;;
3789;SDS011;1910;49.042;9.028;2023-07-13T05:59:26;10.33;;;3.47;;
3789;SDS011;1910;49.042;9.028;2023-07-13T06:01:52;5.03;;;2.87;;
3789;SDS011;1910;49.042;9.028;2023-07-13T06:04:18;9.23;;;2.77;;
3789;SDS011;1910;49.042;9.028;2023-07-13T06:06:45;8.77;;;2.97;;
3789;SDS011;1910;49.042;9.028;2023-07-13T06:09:11;6.60;;;3.23;;
3789;SDS011;1910;49.042;9.028;2023-07-13T06:11:37;7.83;;;2.90;;
3789;SDS011;1910;49.042;9.028;2023-07-13T06:14:02;8.73;;;2.90;;
3789;SDS011;1910;49.042;9.028;2023-07-13T06:16:29;2.27;;;2.07;;
3789;SDS011;1910;49.042;9.028;2023-07-13T06:18:55;2.67;;;2.23;;
3789;SDS011;1910;49.042;9.028;2023-07-13T06:21:21;3.40;;;2.00;;
3789;SDS011;1910;49.042;9.028;2023-07-13T06:23:48;6.30;;;2.00;;
3789;SDS011;1910;49.042;9.028;2023-07-13T06:26:15;6.83;;;2.30;;
3789;SDS011;1910;49.042;9.028;2023-07-13T06:28:41;20.10;;;3.00;;
3789;SDS011;1910;49.042;9.028;2023-07-13T06:31:08;6.77;;;2.50;;
3789;SDS011;1910;49.042;9.028;2023-07-13T06:33:35;4.27;;;2.23;;
3789;SDS011;1910;49.042;9.028;2023-07-13T06:36:02;8.40;;;2.97;;
3789;SDS011;1910;49.042;9.028;2023-07-13T06:38:28;4.40;;;2.03;;
3789;SDS011;1910;49.042;9.028;2023-07-13T06:40:54;3.20;;;1.87;;
3789;SDS011;1910;49.042;9.028;2023-07-13T06:43:20;2.50;;;1.80;;
3789;SDS011;1910;49.042;9.028;2023-07-13T06:45:46;5.40;;;1.33;;
3789;SDS011;1910;49.042;9.028;2023-07-13T06:48:18;2.80;;;1.60;;
3789;SDS011;1910;49.042;9.028;2023-07-13T06:50:44;1.67;;;1.40;;
3789;SDS011;1910;49.042;9.028;2023-07-13T06:53:10;3.90;;;1.80;;
3789;SDS011;1910;49.042;9.028;2023-07-13T06:55:36;1.97;;;1.67;;
3789;SDS011;1910;49.042;9.028;2023-07-13T06:58:02;1.73;;;1.40;;
3789;SDS011;1910;49.042;9.028;2023-07-13T07:00:28;3.20;;;1.50;;
3789;SDS011;1910;49.042;9.028;2023-07-13T07:02:54;3.80;;;1.77;;
3789;SDS011;1910;49.042;9.028;2023-07-13T07:05:20;2.53;;;1.80;;
3789;SDS011;1910;49.042;9.028;2023-07-13T07:07:49;2.40;;;1.80;;
3789;SDS011;1910;49.042;9.028;2023-07-13T07:10:15;3.40;;;1.60;;
3789;SDS011;1910;49.042;9.028;2023-07-13T07:12:41;3.37;;;1.60;;
3789;SDS011;1910;49.042;9.028;2023-07-13T07:15:07;8.77;;;1.70;;
3789;SDS011;1910;49.042;9.028;2023-07-13T07:17:33;4.90;;;1.87;;
3789;SDS011;1910;49.042;9.028;2023-07-13T07:19:59;4.53;;;2.13;;
3789;SDS011;1910;49.042;9.028;2023-07-13T07:22:25;4.10;;;1.63;;
3789;SDS011;1910;49.042;9.028;2023-07-13T07:24:52;8.57;;;1.60;;
3789;SDS011;1910;49.042;9.028;2023-07-13T07:27:18;3.53;;;1.97;;
3789;SDS011;1910;49.042;9.028;2023-07-13T07:29:44;2.57;;;2.23;;
3789;SDS011;1910;49.042;9.028;2023-07-13T07:32:10;2.10;;;1.47;;
3789;SDS011;1910;49.042;9.028;2023-07-13T07:34:36;3.90;;;1.40;;
3789;SDS011;1910;49.042;9.028;2023-07-13T07:37:04;1.70;;;1.23;;
3789;SDS011;1910;49.042;9.028;2023-07-13T07:39:30;5.07;;;1.20;;
3789;SDS011;1910;49.042;9.028;2023-07-13T07:41:56;2.93;;;1.77;;
3789;SDS011;1910;49.042;9.028;2023-07-13T07:44:22;2.03;;;1.30;;
3789;SDS011;1910;49.042;9.028;2023-07-13T07:46:48;1.53;;;0.93;;
3789;SDS011;1910;49.042;9.028;2023-07-13T07:49:14;3.80;;;1.30;;
3789;SDS011;1910;49.042;9.028;2023-07-13T07:51:40;2.17;;;1.97;;
3789;SDS011;1910;49.042;9.028;2023-07-13T07:54:06;2.10;;;1.43;;
3789;SDS011;1910;49.042;9.028;2023-07-13T07:56:32;5.00;;;1.50;;
3789;SDS011;1910;49.042;9.028;2023-07-13T07:58:58;1.70;;;1.60;;
3789;SDS011;1910;49.042;9.028;2023-07-13T08:01:24;2.80;;;1.70;;
3789;SDS011;1910;49.042;9.028;2023-07-13T08:03:50;3.60;;;1.77;;
3789;SDS011;1910;49.042;9.028;2023-07-13T08:06:16;2.93;;;1.27;;
3789;SDS011;1910;49.042;9.028;2023-07-13T08:08:44;16.70;;;2.07;;
3789;SDS011;1910;49.042;9.028;2023-07-13T08:11:10;2.73;;;1.37;;
3789;SDS011;1910;49.042;9.028;2023-07-13T08:13:36;2.33;;;1.57;;
3789;SDS011;1910;49.042;9.028;2023-07-13T08:16:04;2.37;;;1.73;;
3789;SDS011;1910;49.042;9.028;2023-07-13T08:18:30;3.07;;;1.33;;
3789;SDS011;1910;49.042;9.028;2023-07-13T08:20:56;3.33;;;1.30;;
3789;SDS011;1910;49.042;9.028;2023-07-13T08:23:23;4.07;;;1.33;;
3789;SDS011;1910;49.042;9.028;2023-07-13T08:25:52;2.70;;;1.47;;
3789;SDS011;1910;49.042;9.028;2023-07-13T08:28:22;2.50;;;1.27;;
3789;SDS011;1910;49.042;9.028;2023-07-13T08:30:48;2.37;;;1.50;;
3789;SDS011;1910;49.042;9.028;2023-07-13T08:33:15;1.47;;;1.37;;
3789;SDS011;1910;49.042;9.028;2023-07-13T08:35:41;6.60;;;3.37;;
3789;SDS011;1910;49.042;9.028;2023-07-13T08:38:07;4.17;;;1.40;;
3789;SDS011;1910;49.042;9.028;2023-07-13T08:40:33;7.33;;;1.73;;
3789;SDS011;1910;49.042;9.028;2023-07-13T08:42:59;2.80;;;1.33;;
3789;SDS011;1910;49.042;9.028;2023-07-13T08:45:30;5.30;;;1.20;;
3789;SDS011;1910;49.042;9.028;2023-07-13T08:48:20;9.03;;;1.80;;
3789;SDS011;1910;49.042;9.028;2023-07-13T08:50:52;3.93;;;1.30;;
3789;SDS011;1910;49.042;9.028;2023-07-13T08:53:27;2.97;;;1.83;;
3789;SDS011;1910;49.042;9.028;2023-07-13T08:55:59;2.90;;;1.60;;
3789;SDS011;1910;49.042;9.028;2023-07-13T08:58:25;3.73;;;1.50;;
3789;SDS011;1910;49.042;9.028;2023-07-13T09:03:42;2.70;;;1.63;;
3789;SDS011;1910;49.042;9.028;2023-07-13T09:06:21;2.97;;;1.63;;
3789;SDS011;1910;49.042;9.028;2023-07-13T09:08:56;1.60;;;1.40;;
3789;SDS011;1910;49.042;9.028;2023-07-13T09:11:45;2.50;;;1.20;;
3789;SDS011;1910;49.042;9.028;2023-07-13T09:17:08;3.23;;;1.40;;
3789;SDS011;1910;49.042;9.028;2023-07-13T09:19:49;1.83;;;1.53;;
3789;SDS011;1910;49.042;9.028;2023-07-13T09:22:20;3.23;;;1.67;;
3789;SDS011;1910;49.042;9.028;2023-07-13T09:24:54;4.20;;;1.67;;
3789;SDS011;1910;49.042;9.028;2023-07-13T09:27:38;2.50;;;2.30;;
3789;SDS011;1910;49.042;9.028;2023-07-13T09:30:16;3.87;;;1.43;;
3789;SDS011;1910;49.042;9.028;2023-07-13T09:32:52;2.77;;;1.53;;
3789;SDS011;1910;49.042;9.028;2023-07-13T09:35:21;3.50;;;1.63;;
3789;SDS011;1910;49.042;9.028;2023-07-13T09:37:49;3.33;;;1.27;;
3789;SDS011;1910;49.042;9.028;2023-07-13T09:40:24;2.03;;;1.20;;
3789;SDS011;1910;49.042;9.028;2023-07-13T09:42:55;4.03;;;1.63;;
3789;SDS011;1910;49.042;9.028;2023-07-13T09:45:27;3.20;;;1.30;;
3789;SDS011;1910;49.042;9.028;2023-07-13T09:47:58;2.43;;;1.13;;
3789;SDS011;1910;49.042;9.028;2023-07-13T09:50:38;4.80;;;1.60;;
3789;SDS011;1910;49.042;9.028;2023-07-13T09:53:04;6.33;;;1.50;;
3789;SDS011;1910;49.042;9.028;2023-07-13T09:55:38;3.37;;;1.73;;
3789;SDS011;1910;49.042;9.028;2023-07-13T09:58:14;3.20;;;1.77;;
3789;SDS011;1910;49.042;9.028;2023-07-13T10:00:42;3.03;;;1.60;;
3789;SDS011;1910;49.042;9.028;2023-07-13T10:05:45;5.33;;;2.07;;
3789;SDS011;1910;49.042;9.028;2023-07-13T10:08:19;5.90;;;1.43;;
3789;SDS011;1910;49.042;9.028;2023-07-13T10:13:44;3.50;;;1.70;;
3789;SDS011;1910;49.042;9.028;2023-07-13T10:16:13;2.30;;;1.67;;
3789;SDS011;1910;49.042;9.028;2023-07-13T10:18:47;2.87;;;1.37;;
3789;SDS011;1910;49.042;9.028;2023-07-13T10:21:20;2.50;;;2.03;;
3789;SDS011;1910;49.042;9.028;2023-07-13T10:29:26;6.50;;;2.23;;
3789;SDS011;1910;49.042;9.028;2023-07-13T10:31:54;9.63;;;1.50;;
3789;SDS011;1910;49.042;9.028;2023-07-13T10:34:22;3.70;;;1.53;;
3789;SDS011;1910;49.042;9.028;2023-07-13T10:36:48;2.33;;;1.60;;
3789;SDS011;1910;49.042;9.028;2023-07-13T10:39:18;3.03;;;1.47;;
3789;SDS011;1910;49.042;9.028;2023-07-13T10:41:48;4.37;;;1.43;;
3789;SDS011;1910;49.042;9.028;2023-07-13T10:44:20;2.20;;;1.47;;
3789;SDS011;1910;49.042;9.028;2023-07-13T10:46:51;3.83;;;1.47;;
3789;SDS011;1910;49.042;9.028;2023-07-13T10:49:19;4.43;;;1.87;;
3789;SDS011;1910;49.042;9.028;2023-07-13T10:51:46;4.03;;;1.77;;
3789;SDS011;1910;49.042;9.028;2023-07-13T10:54:15;3.67;;;1.70;;
3789;SDS011;1910;49.042;9.028;2023-07-13T10:56:49;4.17;;;1.50;;
3789;SDS011;1910;49.042;9.028;2023-07-13T10:59:18;1.67;;;1.50;;
3789;SDS011;1910;49.042;9.028;2023-07-13T11:04:19;8.70;;;1.37;;
3789;SDS011;1910;49.042;9.028;2023-07-13T11:06:47;2.03;;;1.30;;
3789;SDS011;1910;49.042;9.028;2023-07-13T11:09:31;2.80;;;1.20;;
3789;SDS011;1910;49.042;9.028;2023-07-13T11:12:02;2.57;;;1.33;;
3789;SDS011;1910;49.042;9.028;2023-07-13T11:19:56;2.17;;;1.50;;
3789;SDS011;1910;49.042;9.028;2023-07-13T11:22:47;3.53;;;1.70;;
3789;SDS011;1910;49.042;9.028;2023-07-13T11:27:52;2.27;;;0.93;;
3789;SDS011;1910;49.042;9.028;2023-07-13T11:30:39;3.23;;;1.10;;
3789;SDS011;1910;49.042;9.028;2023-07-13T11:36:03;1.63;;;1.20;;
3789;SDS011;1910;49.042;9.028;2023-07-13T11:38:39;1.73;;;1.33;;
3789;SDS011;1910;49.042;9.028;2023-07-13T11:41:25;2.10;;;1.13;;
3789;SDS011;1910;49.042;9.028;2023-07-13T11:44:13;1.27;;;1.17;;
3789;SDS011;1910;49.042;9.028;2023-07-13T11:46:48;1.30;;;1.20;;
3789;SDS011;1910;49.042;9.028;2023-07-13T11:49:25;2.60;;;1.40;;
3789;SDS011;1910;49.042;9.028;2023-07-13T11:51:54;2.33;;;1.40;;
3789;SDS011;1910;49.042;9.028;2023-07-13T11:54:22;1.60;;;1.00;;
3789;SDS011;1910;49.042;9.028;2023-07-13T11:56:51;3.20;;;1.23;;
3789;SDS011;1910;49.042;9.028;2023-07-13T11:59:17;1.83;;;0.97;;
3789;SDS011;1910;49.042;9.028;2023-07-13T12:01:51;3.97;;;1.70;;
3789;SDS011;1910;49.042;9.028;2023-07-13T12:04:22;3.67;;;1.30;;
3789;SDS011;1910;49.042;9.028;2023-07-13T12:07:23;1.63;;;1.37;;
3789;SDS011;1910;49.042;9.028;2023-07-13T12:09:43;6.00;;;1.30;;
3789;SDS011;1910;49.042;9.028;2023-07-13T12:12:13;4.97;;;1.27;;
3789;SDS011;1910;49.042;9.028;2023-07-13T12:14:42;5.20;;;1.40;;
3789;SDS011;1910;49.042;9.028;2023-07-13T12:17:09;4.30;;;1.47;;
3789;SDS011;1910;49.042;9.028;2023-07-13T12:19:41;3.90;;;1.60;;
3789;SDS011;1910;49.042;9.028;2023-07-13T12:22:11;2.90;;;1.80;;
3789;SDS011;1910;49.042;9.028;2023-07-13T12:24:39;2.00;;;1.40;;
3789;SDS011;1910;49.042;9.028;2023-07-13T12:27:06;2.40;;;1.37;;
3789;SDS011;1910;49.042;9.028;2023-07-13T12:29:32;4.90;;;2.07;;
3789;SDS011;1910;49.042;9.028;2023-07-13T12:31:58;3.00;;;1.40;;
3789;SDS011;1910;49.042;9.028;2023-07-13T12:34:25;5.20;;;1.07;;
3789;SDS011;1910;49.042;9.028;2023-07-13T12:36:52;2.37;;;1.53;;
3789;SDS011;1910;49.042;9.028;2023-07-13T12:40:05;1.30;;;1.20;;
3789;SDS011;1910;49.042;9.028;2023-07-13T12:42:19;2.40;;;1.33;;
3789;SDS011;1910;49.042;9.028;2023-07-13T12:44:58;2.90;;;1.20;;
3789;SDS011;1910;49.042;9.028;2023-07-13T12:47:27;4.30;;;1.60;;
3789;SDS011;1910;49.042;9.028;2023-07-13T12:49:57;2.03;;;1.50;;
3789;SDS011;1910;49.042;9.028;2023-07-13T12:52:28;2.90;;;1.80;;
3789;SDS011;1910;49.042;9.028;2023-07-13T12:54:57;3.60;;;1.77;;
3789;SDS011;1910;49.042;9.028;2023-07-13T12:57:25;4.03;;;1.93;;
3789;SDS011;1910;49.042;9.028;2023-07-13T12:59:52;2.63;;;1.73;;
3789;SDS011;1910;49.042;9.028;2023-07-13T13:02:40;2.00;;;1.37;;
3789;SDS011;1910;49.042;9.028;2023-07-13T13:05:05;3.57;;;2.00;;
3789;SDS011;1910;49.042;9.028;2023-07-13T13:07:31;1.87;;;1.20;;
3789;SDS011;1910;49.042;9.028;2023-07-13T13:09:57;6.87;;;1.53;;
3789;SDS011;1910;49.042;9.028;2023-07-13T13:12:23;2.80;;;1.50;;
3789;SDS011;1910;49.042;9.028;2023-07-13T13:14:51;1.90;;;1.00;;
3789;SDS011;1910;49.042;9.028;2023-07-13T13:17:19;1.60;;;1.40;;
3789;SDS011;1910;49.042;9.028;2023-07-13T13:19:46;2.80;;;1.77;;
3789;SDS011;1910;49.042;9.028;2023-07-13T13:22:12;3.53;;;1.47;;
3789;SDS011;1910;49.042;9.028;2023-07-13T13:24:38;1.60;;;1.23;;
3789;SDS011;1910;49.042;9.028;2023-07-13T13:27:08;1.37;;;1.27;;
3789;SDS011;1910;49.042;9.028;2023-07-13T13:29:42;3.70;;;1.40;;
3789;SDS011;1910;49.042;9.028;2023-07-13T13:32:10;1.80;;;1.40;;
3789;SDS011;1910;49.042;9.028;2023-07-13T13:34:38;3.50;;;1.40;;
3789;SDS011;1910;49.042;9.028;2023-07-13T13:37:04;4.17;;;1.70;;
3789;SDS011;1910;49.042;9.028;2023-07-13T13:39:40;2.73;;;1.50;;
3789;SDS011;1910;49.042;9.028;2023-07-13T13:42:08;2.77;;;1.70;;
3789;SDS011;1910;49.042;9.028;2023-07-13T13:44:34;3.50;;;1.60;;
3789;SDS011;1910;49.042;9.028;2023-07-13T13:47:00;1.10;;;1.00;;
3789;SDS011;1910;49.042;9.028;2023-07-13T13:49:27;5.80;;;1.50;;
3789;SDS011;1910;49.042;9.028;2023-07-13T13:51:55;4.03;;;1.80;;
3789;SDS011;1910;49.042;9.028;2023-07-13T13:54:21;2.47;;;1.60;;
3789;SDS011;1910;49.042;9.028;2023-07-13T13:56:50;4.40;;;1.30;;
3789;SDS011;1910;49.042;9.028;2023-07-13T13:59:16;1.80;;;1.20;;
3789;SDS011;1910;49.042;9.028;2023-07-13T14:01:43;2.67;;;1.80;;
3789;SDS011;1910;49.042;9.028;2023-07-13T14:04:13;3.50;;;1.40;;
3789;SDS011;1910;49.042;9.028;2023-07-13T14:06:42;1.40;;;1.30;;
3789;SDS011;1910;49.042;9.028;2023-07-13T14:09:12;6.27;;;1.63;;
3789;SDS011;1910;49.042;9.028;2023-07-13T14:11:39;4.50;;;1.63;;
3789;SDS011;1910;49.042;9.028;2023-07-13T14:14:08;2.50;;;1.30;;
3789;SDS011;1910;49.042;9.028;2023-07-13T14:16:41;5.43;;;1.67;;
3789;SDS011;1910;49.042;9.028;2023-07-13T14:19:08;2.53;;;1.47;;
3789;SDS011;1910;49.042;9.028;2023-07-13T14:21:35;5.07;;;1.70;;
3789;SDS011;1910;49.042;9.028;2023-07-13T14:24:01;3.70;;;1.40;;
3789;SDS011;1910;49.042;9.028;2023-07-13T14:26:27;3.40;;;1.63;;
3789;SDS011;1910;49.042;9.028;2023-07-13T14:28:55;1.60;;;1.50;;
3789;SDS011;1910;49.042;9.028;2023-07-13T14:31:22;1.90;;;1.10;;
3789;SDS011;1910;49.042;9.028;2023-07-13T14:33:51;1.70;;;1.60;;
3789;SDS011;1910;49.042;9.028;2023-07-13T14:36:25;2.47;;;1.20;;
3789;SDS011;1910;49.042;9.028;2023-07-13T14:38:57;2.30;;;1.70;;
3789;SDS011;1910;49.042;9.028;2023-07-13T14:41:23;2.20;;;1.37;;
3789;SDS011;1910;49.042;9.028;2023-07-13T14:43:49;4.93;;;1.43;;
3789;SDS011;1910;49.042;9.028;2023-07-13T14:46:21;5.90;;;1.63;;
3789;SDS011;1910;49.042;9.028;2023-07-13T14:48:54;3.07;;;1.60;;
3789;SDS011;1910;49.042;9.028;2023-07-13T14:51:29;4.60;;;1.43;;
3789;SDS011;1910;49.042;9.028;2023-07-13T14:53:54;2.33;;;1.30;;
3789;SDS011;1910;49.042;9.028;2023-07-13T14:56:20;3.47;;;1.07;;
3789;SDS011;1910;49.042;9.028;2023-07-13T14:58:46;2.67;;;1.30;;
3789;SDS011;1910;49.042;9.028;2023-07-13T15:01:13;3.07;;;1.70;;
3789;SDS011;1910;49.042;9.028;2023-07-13T15:03:41;3.23;;;1.20;;
3789;SDS011;1910;49.042;9.028;2023-07-13T15:06:14;3.33;;;1.53;;
3789;SDS011;1910;49.042;9.028;2023-07-13T15:08:40;3.57;;;1.40;;
3789;SDS011;1910;49.042;9.028;2023-07-13T15:11:09;4.00;;;1.17;;
3789;SDS011;1910;49.042;9.028;2023-07-13T15:13:39;3.50;;;1.50;;
3789;SDS011;1910;49.042;9.028;2023-07-13T15:16:10;1.20;;;1.10;;
3789;SDS011;1910;49.042;9.028;2023-07-13T15:18:43;2.67;;;1.57;;
3789;SDS011;1910;49.042;9.028;2023-07-13T15:21:11;2.50;;;1.50;;
3789;SDS011;1910;49.042;9.028;2023-07-13T15:23:39;2.37;;;1.30;;
3789;SDS011;1910;49.042;9.028;2023-07-13T15:26:07;1.90;;;1.50;;
3789;SDS011;1910;49.042;9.028;2023-07-13T15:28:38;2.83;;;1.43;;
3789;SDS011;1910;49.042;9.028;2023-07-13T15:31:05;2.70;;;1.40;;
3789;SDS011;1910;49.042;9.028;2023-07-13T15:33:42;2.17;;;1.37;;
3789;SDS011;1910;49.042;9.028;2023-07-13T15:36:08;4.13;;;1.97;;
3789;SDS011;1910;49.042;9.028;2023-07-13T15:38:34;2.10;;;0.97;;
3789;SDS011;1910;49.042;9.028;2023-07-13T15:41:25;1.70;;;1.27;;
3789;SDS011;1910;49.042;9.028;2023-07-13T15:43:54;4.70;;;1.60;;
3789;SDS011;1910;49.042;9.028;2023-07-13T15:46:23;1.77;;;1.50;;
3789;SDS011;1910;49.042;9.028;2023-07-13T15:48:49;1.73;;;1.10;;
3789;SDS011;1910;49.042;9.028;2023-07-13T15:51:26;4.47;;;2.10;;
3789;SDS011;1910;49.042;9.028;2023-07-13T15:53:54;2.80;;;1.47;;
3789;SDS011;1910;49.042;9.028;2023-07-13T15:56:25;2.57;;;1.27;;